createdAt,value
2022-08-28T00:00:44.867Z,100.00
2022-08-28T00:03:31.141Z,100.00
2022-08-28T00:06:16.648Z,100.00
2022-08-28T00:09:01.971Z,100.00
2022-08-28T00:11:48.323Z,100.00
2022-08-28T00:14:34.606Z,100.00
2022-08-28T00:17:19.898Z,100.00
2022-08-28T00:20:07.793Z,100.00
2022-08-28T00:22:55.420Z,100.00
2022-08-28T00:25:40.892Z,100.00
2022-08-28T00:28:26.401Z,100.00
2022-08-28T00:31:13.175Z,100.00
2022-08-28T00:33:58.974Z,100.00
2022-08-28T00:36:45.112Z,100.00
2022-08-28T00:39:31.138Z,100.00
2022-08-28T00:42:17.332Z,100.00
2022-08-28T00:45:02.681Z,100.00
2022-08-28T00:47:48.257Z,100.00
2022-08-28T00:51:00.143Z,100.00
2022-08-28T00:53:46.178Z,100.00
2022-08-28T00:56:32.408Z,100.00
2022-08-28T00:59:20.667Z,100.00
2022-08-28T01:02:07.701Z,100.00
2022-08-28T01:04:54.193Z,100.00
2022-08-28T01:07:39.419Z,100.00
2022-08-28T01:10:27.886Z,100.00
2022-08-28T01:13:14.816Z,100.00
2022-08-28T01:16:01.356Z,100.00
2022-08-28T01:18:49.171Z,100.00
2022-08-28T01:22:07.354Z,100.00
2022-08-28T01:24:55.956Z,100.00
2022-08-28T01:27:42.035Z,100.00
2022-08-28T01:30:29.495Z,100.00
2022-08-28T01:33:15.832Z,100.00
2022-08-28T01:36:01.508Z,100.00
2022-08-28T01:38:52.757Z,100.00
2022-08-28T01:41:45.725Z,100.00
2022-08-28T01:44:31.078Z,100.00
2022-08-28T01:47:16.878Z,100.00
2022-08-28T01:50:02.283Z,100.00
2022-08-28T01:52:47.927Z,100.00
2022-08-28T01:55:35.721Z,100.00
2022-08-28T01:58:23.008Z,100.00
2022-08-28T02:01:13.512Z,100.00
2022-08-28T02:04:00.161Z,100.00
2022-08-28T02:06:45.905Z,100.00
2022-08-28T02:09:31.960Z,100.00
2022-08-28T02:12:17.709Z,100.00
2022-08-28T02:15:04.664Z,100.00
2022-08-28T02:17:50.021Z,100.00
2022-08-28T02:20:35.616Z,100.00
2022-08-28T02:23:21.151Z,100.00
2022-08-28T02:26:06.634Z,100.00
2022-08-28T02:28:51.854Z,100.00
2022-08-28T02:31:37.450Z,100.00
2022-08-28T02:34:23.585Z,100.00
2022-08-28T02:37:11.365Z,100.00
2022-08-28T02:39:58.087Z,100.00
2022-08-28T02:42:44.446Z,100.00
2022-08-28T02:45:30.002Z,100.00
2022-08-28T02:48:16.901Z,100.00
2022-08-28T02:51:06.528Z,100.00
2022-08-28T02:53:52.307Z,100.00
2022-08-28T02:56:37.540Z,100.00
2022-08-28T02:59:23.162Z,100.00
2022-08-28T03:02:09.085Z,100.00
2022-08-28T03:04:55.418Z,100.00
2022-08-28T03:07:40.724Z,100.00
2022-08-28T03:10:26.329Z,100.00
2022-08-28T03:13:12.000Z,100.00
2022-08-28T03:16:12.169Z,100.00
2022-08-28T03:18:57.833Z,100.00
2022-08-28T03:21:43.403Z,100.00
2022-08-28T03:24:28.928Z,100.00
2022-08-28T03:27:14.545Z,100.00
2022-08-28T03:30:00.202Z,100.00
2022-08-28T03:32:45.875Z,100.00
2022-08-28T03:35:31.668Z,100.00
2022-08-28T03:38:17.697Z,100.00
2022-08-28T03:41:03.536Z,100.00
2022-08-28T03:43:49.306Z,100.00
2022-08-28T03:46:35.090Z,100.00
2022-08-28T03:49:20.565Z,100.00
2022-08-28T03:52:06.558Z,100.00
2022-08-28T03:54:52.657Z,100.00
2022-08-28T03:57:39.115Z,100.00
2022-08-28T04:00:25.373Z,100.00
2022-08-28T04:03:14.088Z,100.00
2022-08-28T04:05:59.721Z,100.00
2022-08-28T04:08:45.421Z,100.00
2022-08-28T04:11:31.653Z,100.00
2022-08-28T04:14:17.033Z,100.00
2022-08-28T04:17:02.387Z,100.00
2022-08-28T04:19:47.911Z,100.00
2022-08-28T04:22:33.473Z,100.00
2022-08-28T04:25:19.437Z,100.00
2022-08-28T04:28:04.997Z,100.00
2022-08-28T04:30:55.189Z,100.00
2022-08-28T04:33:40.675Z,100.00
2022-08-28T04:36:25.969Z,100.00
2022-08-28T04:39:11.621Z,100.00
2022-08-28T04:41:56.918Z,100.00
2022-08-28T04:44:42.621Z,100.00
2022-08-28T04:47:28.122Z,100.00
2022-08-28T04:50:13.549Z,100.00
2022-08-28T04:52:59.109Z,100.00
2022-08-28T04:55:54.448Z,100.00
2022-08-28T04:58:43.241Z,100.00
2022-08-28T05:01:28.759Z,100.00
2022-08-28T05:04:14.417Z,100.00
2022-08-28T05:06:59.913Z,100.00
2022-08-28T05:09:45.273Z,100.00
2022-08-28T05:12:30.571Z,100.00
2022-08-28T05:15:16.213Z,100.00
2022-08-28T05:18:01.617Z,100.00
2022-08-28T05:20:48.196Z,100.00
2022-08-28T05:23:33.964Z,100.00
2022-08-28T05:26:19.870Z,100.00
2022-08-28T05:29:06.423Z,100.00
2022-08-28T05:31:52.026Z,100.00
2022-08-28T05:34:37.934Z,100.00
2022-08-28T05:37:23.596Z,100.00
2022-08-28T05:40:10.472Z,100.00
2022-08-28T05:42:55.996Z,100.00
2022-08-28T05:45:41.767Z,100.00
2022-08-28T05:48:30.404Z,100.00
2022-08-28T05:51:23.897Z,100.00
2022-08-28T05:54:10.684Z,100.00
2022-08-28T05:56:56.269Z,100.00
2022-08-28T05:59:41.702Z,100.00
2022-08-28T06:02:27.463Z,100.00
2022-08-28T06:05:13.256Z,100.00
2022-08-28T06:07:59.091Z,100.00
2022-08-28T06:10:44.866Z,100.00
2022-08-28T06:13:37.503Z,100.00
2022-08-28T06:16:24.422Z,100.00
2022-08-28T06:19:12.038Z,100.00
2022-08-28T06:22:00.331Z,100.00
2022-08-28T06:24:45.764Z,100.00
2022-08-28T06:27:33.550Z,100.00
2022-08-28T06:30:18.888Z,100.00
2022-08-28T06:33:05.379Z,100.00
2022-08-28T06:35:53.792Z,100.00
2022-08-28T06:38:39.568Z,98.81
2022-08-28T06:41:25.549Z,99.38
2022-08-28T06:44:14.309Z,97.30
2022-08-28T06:47:00.385Z,96.00
2022-08-28T06:49:45.704Z,94.36
2022-08-28T06:52:31.347Z,92.32
2022-08-28T06:55:17.427Z,91.86
2022-08-28T06:58:03.993Z,90.22
2022-08-28T07:00:58.160Z,87.90
2022-08-28T07:03:46.446Z,85.82
2022-08-28T07:06:36.181Z,85.27
2022-08-28T07:09:22.177Z,83.84
2022-08-28T07:12:08.836Z,81.35
2022-08-28T07:14:54.355Z,79.59
2022-08-28T07:17:39.579Z,79.10
2022-08-28T07:20:25.211Z,77.97
2022-08-28T07:23:11.125Z,78.83
2022-08-28T07:25:57.070Z,76.83
2022-08-28T07:28:42.984Z,77.39
2022-08-28T07:31:31.253Z,76.75
2022-08-28T07:34:18.766Z,73.21
2022-08-28T07:37:06.651Z,72.94
2022-08-28T07:39:52.296Z,73.65
2022-08-28T07:42:56.763Z,68.68
2022-08-28T07:45:43.038Z,65.84
2022-08-28T07:48:28.660Z,67.30
2022-08-28T07:51:14.110Z,63.46
2022-08-28T07:53:59.531Z,62.38
2022-08-28T07:56:45.798Z,63.69
2022-08-28T07:59:36.827Z,63.20
2022-08-28T08:02:22.966Z,64.63
2022-08-28T08:05:10.219Z,63.95
2022-08-28T08:07:56.795Z,61.26
2022-08-28T08:10:42.345Z,58.16
2022-08-28T08:13:29.615Z,55.28
2022-08-28T08:16:19.350Z,52.33
2022-08-28T08:19:05.208Z,50.88
2022-08-28T08:21:54.879Z,51.35
2022-08-28T08:24:41.165Z,53.27
2022-08-28T08:27:27.519Z,57.28
2022-08-28T08:30:13.286Z,53.86
2022-08-28T08:32:58.853Z,50.80
2022-08-28T08:35:44.295Z,50.62
2022-08-28T08:38:30.677Z,51.20
2022-08-28T08:41:39.082Z,52.62
2022-08-28T08:44:43.300Z,53.46
2022-08-28T08:47:41.269Z,52.36
2022-08-28T08:50:34.264Z,47.67
2022-08-28T08:53:25.657Z,47.03
2022-08-28T08:56:16.847Z,49.47
2022-08-28T08:59:07.876Z,50.75
2022-08-28T09:02:05.177Z,51.53
2022-08-28T09:04:59.303Z,50.72
2022-08-28T09:08:01.594Z,49.71
2022-08-28T09:11:00.684Z,50.46
2022-08-28T09:13:59.253Z,49.02
2022-08-28T09:16:47.198Z,45.41
2022-08-28T09:19:33.211Z,42.57
2022-08-28T09:22:19.288Z,40.98
2022-08-28T09:25:05.253Z,45.51
2022-08-28T09:27:53.812Z,48.58
2022-08-28T09:30:41.368Z,49.04
2022-08-28T09:33:49.087Z,43.10
2022-08-28T09:36:37.035Z,36.35
2022-08-28T09:39:35.578Z,42.21
2022-08-28T09:42:42.605Z,44.97
2022-08-28T09:45:29.070Z,47.68
2022-08-28T09:48:21.856Z,45.60
2022-08-28T09:51:11.601Z,44.72
2022-08-28T09:54:08.006Z,45.93
2022-08-28T09:56:54.213Z,46.10
2022-08-28T09:59:39.750Z,43.31
2022-08-28T10:02:39.437Z,40.08
2022-08-28T10:05:43.076Z,36.84
2022-08-28T10:08:54.922Z,35.68
2022-08-28T10:12:13.240Z,42.69
2022-08-28T10:15:04.382Z,42.50
2022-08-28T10:18:17.957Z,38.53
2022-08-28T10:21:10.436Z,35.58
2022-08-28T10:24:24.733Z,32.78
2022-08-28T10:27:26.867Z,33.70
2022-08-28T10:30:22.941Z,39.14
2022-08-28T10:33:25.831Z,42.54
2022-08-28T10:36:26.423Z,45.27
2022-08-28T10:39:33.232Z,43.31
2022-08-28T10:42:36.553Z,38.53
2022-08-28T10:45:26.278Z,42.31
2022-08-28T10:48:25.024Z,38.94
2022-08-28T10:51:17.337Z,33.82
2022-08-28T10:54:25.930Z,32.29
2022-08-28T10:57:24.052Z,38.13
2022-08-28T11:00:14.322Z,38.30
2022-08-28T11:03:02.617Z,32.77
2022-08-28T11:05:53.781Z,31.36
2022-08-28T11:08:39.817Z,31.11
2022-08-28T11:11:42.978Z,31.90
2022-08-28T11:14:30.575Z,38.19
2022-08-28T11:17:21.886Z,40.25
2022-08-28T11:20:13.832Z,38.58
2022-08-28T11:23:16.075Z,38.57
2022-08-28T11:26:07.775Z,36.58
2022-08-28T11:28:53.206Z,36.05
2022-08-28T11:31:40.932Z,35.50
2022-08-28T11:34:44.908Z,35.57
2022-08-28T11:37:41.428Z,39.91
2022-08-28T11:40:32.527Z,39.25
2022-08-28T11:43:18.778Z,39.43
2022-08-28T11:46:05.851Z,34.78
2022-08-28T11:48:52.499Z,31.92
2022-08-28T11:51:49.114Z,29.09
2022-08-28T11:54:44.057Z,32.22
2022-08-28T11:57:41.079Z,36.86
2022-08-28T12:00:29.050Z,38.25
2022-08-28T12:03:36.860Z,32.91
2022-08-28T12:06:41.229Z,30.30
2022-08-28T12:09:26.323Z,28.55
2022-08-28T12:12:20.411Z,28.19
2022-08-28T12:15:08.030Z,30.79
2022-08-28T12:17:57.112Z,29.19
2022-08-28T12:20:51.090Z,28.17
2022-08-28T12:23:39.213Z,27.24
2022-08-28T12:26:39.776Z,26.43
2022-08-28T12:29:34.827Z,28.32
2022-08-28T12:32:28.780Z,28.66
2022-08-28T12:35:21.354Z,27.80
2022-08-28T12:38:09.191Z,31.55
2022-08-28T12:40:54.748Z,29.39
2022-08-28T12:43:46.681Z,28.92
2022-08-28T12:46:37.511Z,26.21
2022-08-28T12:49:28.326Z,26.26
2022-08-28T12:52:16.883Z,26.76
2022-08-28T12:55:02.178Z,27.88
2022-08-28T12:57:47.930Z,28.23
2022-08-28T13:00:35.709Z,28.69
2022-08-28T13:03:22.526Z,27.74
2022-08-28T13:06:09.325Z,28.05
2022-08-28T13:08:57.543Z,25.40
2022-08-28T13:11:47.171Z,25.13
2022-08-28T13:14:38.312Z,25.92
2022-08-28T13:17:42.105Z,26.43
2022-08-28T13:20:34.988Z,25.07
2022-08-28T13:23:29.571Z,25.06
2022-08-28T13:26:19.529Z,27.08
2022-08-28T13:29:16.592Z,27.70
2022-08-28T13:32:01.905Z,25.36
2022-08-28T13:35:05.438Z,25.91
2022-08-28T13:37:52.082Z,25.20
2022-08-28T13:40:57.422Z,27.85
2022-08-28T13:43:44.855Z,26.06
2022-08-28T13:46:30.429Z,26.02
2022-08-28T13:49:16.925Z,25.45
2022-08-28T13:52:04.541Z,28.36
2022-08-28T13:54:50.884Z,27.43
2022-08-28T13:57:36.251Z,27.38
2022-08-28T14:00:21.650Z,26.63
2022-08-28T14:03:25.552Z,26.10
2022-08-28T14:06:16.744Z,26.11
2022-08-28T14:09:02.463Z,26.92
2022-08-28T14:11:48.383Z,26.88
2022-08-28T14:14:34.169Z,27.50
2022-08-28T14:17:21.417Z,28.04
2022-08-28T14:20:06.973Z,27.20
2022-08-28T14:22:52.768Z,27.79
2022-08-28T14:25:42.068Z,28.21
2022-08-28T14:28:27.411Z,27.48
2022-08-28T14:31:14.767Z,26.93
2022-08-28T14:34:00.343Z,28.33
2022-08-28T14:36:46.051Z,29.54
2022-08-28T14:39:32.023Z,30.70
2022-08-28T14:42:18.485Z,32.75
2022-08-28T14:45:04.102Z,31.34
2022-08-28T14:47:49.605Z,30.31
2022-08-28T14:50:38.033Z,28.92
2022-08-28T14:53:23.232Z,28.47
2022-08-28T14:56:09.024Z,29.31
2022-08-28T14:58:54.090Z,28.55
2022-08-28T15:01:40.962Z,28.94
2022-08-28T15:04:28.063Z,28.49
2022-08-28T15:07:13.680Z,28.67
2022-08-28T15:09:58.805Z,28.42
2022-08-28T15:12:44.018Z,30.48
2022-08-28T15:15:29.901Z,31.00
2022-08-28T15:18:15.666Z,31.44
2022-08-28T15:21:00.795Z,30.18
2022-08-28T15:23:48.171Z,30.71
2022-08-28T15:26:34.058Z,31.32
2022-08-28T15:29:19.542Z,31.00
2022-08-28T15:32:05.311Z,30.32
2022-08-28T15:34:51.658Z,30.40
2022-08-28T15:37:37.079Z,34.41
2022-08-28T15:40:41.059Z,33.90
2022-08-28T15:43:26.390Z,34.44
2022-08-28T15:46:12.832Z,33.66
2022-08-28T15:48:58.120Z,36.22
2022-08-28T15:51:43.371Z,39.03
2022-08-28T15:54:29.969Z,40.56
2022-08-28T15:57:15.553Z,39.53
2022-08-28T16:00:00.936Z,41.48
2022-08-28T16:02:45.971Z,43.01
2022-08-28T16:05:34.795Z,44.72
2022-08-28T16:08:25.166Z,46.80
2022-08-28T16:11:13.707Z,46.85
2022-08-28T16:13:59.056Z,46.27
2022-08-28T16:16:46.382Z,47.10
2022-08-28T16:19:34.686Z,48.16
2022-08-28T16:22:20.441Z,49.10
2022-08-28T16:25:05.855Z,49.80
2022-08-28T16:27:51.021Z,50.48
2022-08-28T16:30:37.556Z,51.95
2022-08-28T16:33:30.302Z,52.73
2022-08-28T16:36:16.446Z,52.88
2022-08-28T16:39:04.061Z,51.04
2022-08-28T16:41:50.177Z,52.91
2022-08-28T16:44:36.890Z,52.72
2022-08-28T16:47:22.169Z,52.08
2022-08-28T16:50:09.105Z,52.85
2022-08-28T16:52:55.085Z,52.60
2022-08-28T16:55:40.510Z,53.20
2022-08-28T16:58:25.661Z,53.76
2022-08-28T17:01:11.946Z,54.51
2022-08-28T17:03:57.580Z,55.15
2022-08-28T17:06:43.426Z,55.14
2022-08-28T17:09:28.579Z,55.22
2022-08-28T17:12:14.133Z,55.57
2022-08-28T17:15:01.354Z,56.02
2022-08-28T17:17:47.100Z,55.55
2022-08-28T17:20:50.576Z,57.01
2022-08-28T17:23:36.246Z,56.89
2022-08-28T17:26:23.393Z,56.37
2022-08-28T17:29:09.311Z,56.86
2022-08-28T17:31:56.537Z,56.82
2022-08-28T17:34:42.055Z,57.36
2022-08-28T17:37:27.462Z,57.36
2022-08-28T17:40:16.359Z,57.37
2022-08-28T17:43:02.771Z,58.24
2022-08-28T17:45:48.363Z,58.30
2022-08-28T17:48:36.509Z,59.52
2022-08-28T17:51:23.492Z,59.96
2022-08-28T17:54:27.146Z,59.62
2022-08-28T17:57:13.971Z,59.99
2022-08-28T18:00:00.516Z,60.15
2022-08-28T18:02:46.210Z,60.62
2022-08-28T18:05:31.756Z,61.31
2022-08-28T18:46:32.747Z,69.20
2022-08-28T18:49:17.959Z,69.73
2022-08-28T18:52:03.530Z,69.83
2022-08-28T18:54:49.204Z,70.29
2022-08-28T18:57:35.607Z,70.48
2022-08-28T19:00:21.800Z,71.30
2022-08-28T19:03:07.384Z,72.48
2022-08-28T19:05:54.854Z,73.62
2022-08-28T19:08:40.304Z,73.88
2022-08-28T19:11:26.803Z,73.32
2022-08-28T19:14:12.135Z,74.47
2022-08-28T19:16:57.526Z,75.14
2022-08-28T19:19:42.642Z,76.04
2022-08-28T19:22:28.601Z,75.89
2022-08-28T19:25:27.474Z,77.23
2022-08-28T19:28:13.850Z,76.50
2022-08-28T19:30:59.702Z,76.92
2022-08-28T19:33:46.396Z,78.31
2022-08-28T19:36:31.408Z,78.54
2022-08-28T19:39:17.481Z,80.25
2022-08-28T19:42:02.839Z,79.49
2022-08-28T19:44:51.182Z,78.99
2022-08-28T19:47:45.297Z,79.27
2022-08-28T19:50:30.486Z,78.65
2022-08-28T19:53:16.188Z,78.84
2022-08-28T19:56:01.267Z,79.46
2022-08-28T19:58:46.492Z,79.68
2022-08-28T20:01:37.621Z,80.51
2022-08-28T20:04:23.181Z,80.46
2022-08-28T20:07:10.624Z,80.87
2022-08-28T20:09:56.013Z,80.99
2022-08-28T20:12:45.048Z,82.29
2022-08-28T20:15:33.649Z,82.37
2022-08-28T20:18:19.983Z,82.21
2022-08-28T20:21:09.066Z,83.06
2022-08-28T20:23:54.447Z,83.05
2022-08-28T20:26:39.935Z,83.57
2022-08-28T20:29:25.372Z,84.31
2022-08-28T20:32:10.962Z,84.78
2022-08-28T20:34:56.263Z,85.41
2022-08-28T20:37:44.951Z,85.47
2022-08-28T20:40:31.162Z,86.55
2022-08-28T20:43:16.628Z,86.71
2022-08-28T20:46:05.763Z,86.93
2022-08-28T20:48:51.032Z,87.53
2022-08-28T20:51:56.679Z,87.67
2022-08-28T20:54:42.388Z,89.25
2022-08-28T20:57:27.908Z,89.22
2022-08-28T21:00:13.935Z,89.64
2022-08-28T21:02:59.319Z,90.24
2022-08-28T21:05:48.052Z,90.37
2022-08-28T21:08:34.367Z,90.90
2022-08-28T21:11:19.741Z,91.63
2022-08-28T21:14:05.376Z,92.08
2022-08-28T21:16:50.775Z,92.48
2022-08-28T21:19:40.175Z,94.04
2022-08-28T21:22:26.348Z,93.92
2022-08-28T21:25:12.033Z,94.28
2022-08-28T21:27:57.133Z,95.53
2022-08-28T21:30:42.518Z,96.32
2022-08-28T21:33:27.962Z,96.02
2022-08-28T21:36:15.363Z,96.02
2022-08-28T21:39:00.835Z,95.66
2022-08-28T21:41:46.504Z,98.09
2022-08-28T21:44:32.123Z,96.66
2022-08-28T21:47:17.367Z,97.00
2022-08-28T21:50:02.900Z,99.81
2022-08-28T21:52:48.350Z,99.33
2022-08-28T21:55:33.522Z,100.00
2022-08-28T21:58:19.382Z,100.00
2022-08-28T22:01:05.279Z,100.00
2022-08-28T22:03:50.558Z,100.00
2022-08-28T22:06:35.797Z,100.00
2022-08-28T22:09:22.013Z,100.00
2022-08-28T22:12:08.944Z,100.00
2022-08-28T22:14:54.301Z,100.00
2022-08-28T22:17:39.487Z,100.00
2022-08-28T22:20:25.515Z,100.00
2022-08-28T22:23:10.961Z,100.00
2022-08-28T22:25:56.554Z,100.00
2022-08-28T22:28:41.625Z,100.00
2022-08-28T22:31:26.989Z,100.00
2022-08-28T22:34:12.360Z,100.00
2022-08-28T22:36:57.812Z,100.00
2022-08-28T22:39:43.220Z,99.48
2022-08-28T22:42:28.252Z,99.32
2022-08-28T22:45:13.842Z,98.90
2022-08-28T22:47:59.497Z,97.51
2022-08-28T22:50:46.265Z,97.24
2022-08-28T22:53:31.930Z,96.73
2022-08-28T22:56:17.660Z,97.14
2022-08-28T22:59:03.023Z,95.70
2022-08-28T23:01:48.340Z,95.63
2022-08-28T23:04:34.353Z,95.35
2022-08-28T23:07:20.034Z,94.29
2022-08-28T23:10:06.061Z,93.28
2022-08-28T23:12:51.393Z,93.50
2022-08-28T23:15:36.824Z,93.49
2022-08-28T23:18:23.644Z,93.68
2022-08-28T23:21:09.584Z,92.99
2022-08-28T23:23:55.506Z,93.79
2022-08-28T23:26:40.731Z,93.47
2022-08-28T23:29:26.177Z,93.43
2022-08-28T23:32:11.649Z,93.60
2022-08-28T23:34:57.190Z,93.66
2022-08-28T23:37:48.022Z,93.04
2022-08-28T23:40:34.371Z,92.80
2022-08-28T23:43:19.613Z,92.94
2022-08-28T23:46:05.293Z,92.92
2022-08-28T23:48:51.190Z,93.31
2022-08-28T23:51:36.681Z,94.07
2022-08-28T23:54:22.010Z,93.94
2022-08-28T23:57:07.597Z,94.62
2022-08-28T23:59:53.504Z,94.42
